﻿<?xml version="1.0" encoding="UTF-8" standalone="no"?>
<gpx xmlns="http://www.topografix.com/GPX/1/1" xmlns:gpxtpx="http://www.garmin.com/xmlschemas/TrackPointExtension/v1" xmlns:xsi="http://www.w3.org/2001/XMLSchema-instance" creator="Hribi.net" version="1.1" xsi:schemaLocation="http://www.topografix.com/GPX/1/1 http://www.topografix.com/GPX/1/1/gpx.xsd http://www.garmin.com/xmlschemas/TrackPointExtension/v1 http://www.garmin.com/xmlschemas/TrackPointExtensionv1.xsd">
  <metadata>
    <name>GPS sled</name>
    <desc>www.hribi.net</desc>
    <author>
      <name>hribi.net</name>
    </author>
    <link href="http://www.hribi.net">
      <text>Hribi.net</text>
    </link>
  </metadata>
  <trk>
    <trkseg>
      <trkpt lat="45.50554" lon="14.05611">
        <ele>769.193298339844</ele>
        <time>2007-02-24T09:24:30Z</time>
      </trkpt>
      <trkpt lat="45.50569" lon="14.05623">
        <ele>769.193298339844</ele>
        <time>2007-02-24T09:24:49Z</time>
      </trkpt>
      <trkpt lat="45.50582" lon="14.05647">
        <ele>769.680969238281</ele>
        <time>2007-02-24T09:25:08Z</time>
      </trkpt>
      <trkpt lat="45.50586" lon="14.05671">
        <ele>771.113464355468</ele>
        <time>2007-02-24T09:25:25Z</time>
      </trkpt>
      <trkpt lat="45.50586" lon="14.05701">
        <ele>772.546081542968</ele>
        <time>2007-02-24T09:25:45Z</time>
      </trkpt>
      <trkpt lat="45.50582" lon="14.05722">
        <ele>774.46630859375</ele>
        <time>2007-02-24T09:26:03Z</time>
      </trkpt>
      <trkpt lat="45.50578" lon="14.05735">
        <ele>774.46630859375</ele>
        <time>2007-02-24T09:26:19Z</time>
      </trkpt>
      <trkpt lat="45.50569" lon="14.05756">
        <ele>776.417053222657</ele>
        <time>2007-02-24T09:26:39Z</time>
      </trkpt>
      <trkpt lat="45.50563" lon="14.05782">
        <ele>777.849609374999</ele>
        <time>2007-02-24T09:27:01Z</time>
      </trkpt>
      <trkpt lat="45.50565" lon="14.05808">
        <ele>779.769836425781</ele>
        <time>2007-02-24T09:27:21Z</time>
      </trkpt>
      <trkpt lat="45.50565" lon="14.05829">
        <ele>781.202392578126</ele>
        <time>2007-02-24T09:27:39Z</time>
      </trkpt>
      <trkpt lat="45.50556" lon="14.05853">
        <ele>783.122680664063</ele>
        <time>2007-02-24T09:27:58Z</time>
      </trkpt>
      <trkpt lat="45.50546" lon="14.0587">
        <ele>785.042907714845</ele>
        <time>2007-02-24T09:28:16Z</time>
      </trkpt>
      <trkpt lat="45.50533" lon="14.05881">
        <ele>786.96307373047</ele>
        <time>2007-02-24T09:28:33Z</time>
      </trkpt>
      <trkpt lat="45.50516" lon="14.05896">
        <ele>788.426147460936</ele>
        <time>2007-02-24T09:28:52Z</time>
      </trkpt>
      <trkpt lat="45.50503" lon="14.05911">
        <ele>788.913879394531</ele>
        <time>2007-02-24T09:29:09Z</time>
      </trkpt>
      <trkpt lat="45.50486" lon="14.05935">
        <ele>789.371032714844</ele>
        <time>2007-02-24T09:29:32Z</time>
      </trkpt>
      <trkpt lat="45.50471" lon="14.0596">
        <ele>789.858703613281</ele>
        <time>2007-02-24T09:29:53Z</time>
      </trkpt>
      <trkpt lat="45.50458" lon="14.05977">
        <ele>790.834106445314</ele>
        <time>2007-02-24T09:30:11Z</time>
      </trkpt>
      <trkpt lat="45.50436" lon="14.05993">
        <ele>791.778930664064</ele>
        <time>2007-02-24T09:30:32Z</time>
      </trkpt>
      <trkpt lat="45.5043" lon="14.06001">
        <ele>786.505920410157</ele>
        <time>2007-02-24T09:30:41Z</time>
      </trkpt>
      <trkpt lat="45.50428" lon="14.06001">
        <ele>796.594787597658</ele>
        <time>2007-02-24T09:30:42Z</time>
      </trkpt>
      <trkpt lat="45.50428" lon="14.06003">
        <ele>792.266662597656</ele>
        <time>2007-02-24T09:30:43Z</time>
      </trkpt>
      <trkpt lat="45.50426" lon="14.06008">
        <ele>793.699218750001</ele>
        <time>2007-02-24T09:30:47Z</time>
      </trkpt>
      <trkpt lat="45.50417" lon="14.06027">
        <ele>794.674560546875</ele>
        <time>2007-02-24T09:31:07Z</time>
      </trkpt>
      <trkpt lat="45.50406" lon="14.06027">
        <ele>796.107116699217</ele>
        <time>2007-02-24T09:31:22Z</time>
      </trkpt>
      <trkpt lat="45.50393" lon="14.06033">
        <ele>799.002685546874</ele>
        <time>2007-02-24T09:31:43Z</time>
      </trkpt>
      <trkpt lat="45.50391" lon="14.06033">
        <ele>799.002685546874</ele>
        <time>2007-02-24T09:31:44Z</time>
      </trkpt>
      <trkpt lat="45.50385" lon="14.0604">
        <ele>800.435302734374</ele>
        <time>2007-02-24T09:32:00Z</time>
      </trkpt>
      <trkpt lat="45.5037" lon="14.06046">
        <ele>802.843200683593</ele>
        <time>2007-02-24T09:32:25Z</time>
      </trkpt>
      <trkpt lat="45.50361" lon="14.06055">
        <ele>805.251098632813</ele>
        <time>2007-02-24T09:32:50Z</time>
      </trkpt>
      <trkpt lat="45.50363" lon="14.06065">
        <ele>803.788085937501</ele>
        <time>2007-02-24T09:33:27Z</time>
      </trkpt>
      <trkpt lat="45.50355" lon="14.06072">
        <ele>808.116271972658</ele>
        <time>2007-02-24T09:34:38Z</time>
      </trkpt>
      <trkpt lat="45.50346" lon="14.06083">
        <ele>811.011840820311</ele>
        <time>2007-02-24T09:34:55Z</time>
      </trkpt>
      <trkpt lat="45.50342" lon="14.06089">
        <ele>812.932128906251</ele>
        <time>2007-02-24T09:35:10Z</time>
      </trkpt>
      <trkpt lat="45.50331" lon="14.06102">
        <ele>814.852294921876</ele>
        <time>2007-02-24T09:35:32Z</time>
      </trkpt>
      <trkpt lat="45.50316" lon="14.06104">
        <ele>816.772521972655</ele>
        <time>2007-02-24T09:35:53Z</time>
      </trkpt>
      <trkpt lat="45.50312" lon="14.06104">
        <ele>816.772521972655</ele>
        <time>2007-02-24T09:36:07Z</time>
      </trkpt>
      <trkpt lat="45.50303" lon="14.061">
        <ele>816.772521972655</ele>
        <time>2007-02-24T09:36:24Z</time>
      </trkpt>
      <trkpt lat="45.50297" lon="14.061">
        <ele>817.74786376953</ele>
        <time>2007-02-24T09:36:40Z</time>
      </trkpt>
      <trkpt lat="45.50295" lon="14.06102">
        <ele>804.275756835938</ele>
        <time>2007-02-24T09:36:46Z</time>
      </trkpt>
      <trkpt lat="45.50295" lon="14.06104">
        <ele>818.692810058595</ele>
        <time>2007-02-24T09:36:47Z</time>
      </trkpt>
      <trkpt lat="45.50295" lon="14.06106">
        <ele>817.26025390625</ele>
        <time>2007-02-24T09:37:25Z</time>
      </trkpt>
      <trkpt lat="45.50295" lon="14.06111">
        <ele>818.205078125</ele>
        <time>2007-02-24T09:37:41Z</time>
      </trkpt>
      <trkpt lat="45.50288" lon="14.06113">
        <ele>817.74786376953</ele>
        <time>2007-02-24T09:37:53Z</time>
      </trkpt>
      <trkpt lat="45.50284" lon="14.06123">
        <ele>819.180480957032</ele>
        <time>2007-02-24T09:38:14Z</time>
      </trkpt>
      <trkpt lat="45.50265" lon="14.06138">
        <ele>821.100708007812</ele>
        <time>2007-02-24T09:38:50Z</time>
      </trkpt>
      <trkpt lat="45.5026" lon="14.06147">
        <ele>823.508666992189</ele>
        <time>2007-02-24T09:39:06Z</time>
      </trkpt>
      <trkpt lat="45.50258" lon="14.06158">
        <ele>824.453491210939</ele>
        <time>2007-02-24T09:39:20Z</time>
      </trkpt>
      <trkpt lat="45.50254" lon="14.06171">
        <ele>825.428894042968</ele>
        <time>2007-02-24T09:39:36Z</time>
      </trkpt>
      <trkpt lat="45.50243" lon="14.06179">
        <ele>826.404235839843</ele>
        <time>2007-02-24T09:39:54Z</time>
      </trkpt>
      <trkpt lat="45.50232" lon="14.06194">
        <ele>828.324523925783</ele>
        <time>2007-02-24T09:40:16Z</time>
      </trkpt>
      <trkpt lat="45.50228" lon="14.06201">
        <ele>829.269348144533</ele>
        <time>2007-02-24T09:40:30Z</time>
      </trkpt>
      <trkpt lat="45.50224" lon="14.06214">
        <ele>830.244689941407</ele>
        <time>2007-02-24T09:40:46Z</time>
      </trkpt>
      <trkpt lat="45.50217" lon="14.06226">
        <ele>831.677307128907</ele>
        <time>2007-02-24T09:41:04Z</time>
      </trkpt>
      <trkpt lat="45.50209" lon="14.06239">
        <ele>832.164916992187</ele>
        <time>2007-02-24T09:41:22Z</time>
      </trkpt>
      <trkpt lat="45.50196" lon="14.0625">
        <ele>833.597473144532</ele>
        <time>2007-02-24T09:41:42Z</time>
      </trkpt>
      <trkpt lat="45.50185" lon="14.06256">
        <ele>836.005432128906</ele>
        <time>2007-02-24T09:42:01Z</time>
      </trkpt>
      <trkpt lat="45.50183" lon="14.06256">
        <ele>839.358276367188</ele>
        <time>2007-02-24T09:42:09Z</time>
      </trkpt>
      <trkpt lat="45.5017" lon="14.06254">
        <ele>836.950317382814</ele>
        <time>2007-02-24T09:42:25Z</time>
      </trkpt>
      <trkpt lat="45.50155" lon="14.06252">
        <ele>837.925720214843</ele>
        <time>2007-02-24T09:42:43Z</time>
      </trkpt>
      <trkpt lat="45.50147" lon="14.06254">
        <ele>839.845886230467</ele>
        <time>2007-02-24T09:42:57Z</time>
      </trkpt>
      <trkpt lat="45.50136" lon="14.06261">
        <ele>840.8212890625</ele>
        <time>2007-02-24T09:43:14Z</time>
      </trkpt>
      <trkpt lat="45.50123" lon="14.06271">
        <ele>842.741516113282</ele>
        <time>2007-02-24T09:43:36Z</time>
      </trkpt>
      <trkpt lat="45.50112" lon="14.06276">
        <ele>845.606628417969</ele>
        <time>2007-02-24T09:43:54Z</time>
      </trkpt>
      <trkpt lat="45.50106" lon="14.06282">
        <ele>847.069702148438</ele>
        <time>2007-02-24T09:44:09Z</time>
      </trkpt>
      <trkpt lat="45.50097" lon="14.06295">
        <ele>848.50225830078</ele>
        <time>2007-02-24T09:44:27Z</time>
      </trkpt>
      <trkpt lat="45.50086" lon="14.06304">
        <ele>849.44708251953</ele>
        <time>2007-02-24T09:44:44Z</time>
      </trkpt>
      <trkpt lat="45.50078" lon="14.06312">
        <ele>851.855041503908</ele>
        <time>2007-02-24T09:45:01Z</time>
      </trkpt>
      <trkpt lat="45.50069" lon="14.06321">
        <ele>852.830383300782</ele>
        <time>2007-02-24T09:45:16Z</time>
      </trkpt>
      <trkpt lat="45.50061" lon="14.06334">
        <ele>854.750671386719</ele>
        <time>2007-02-24T09:45:36Z</time>
      </trkpt>
      <trkpt lat="45.5005" lon="14.06336">
        <ele>855.238281249999</ele>
        <time>2007-02-24T09:45:52Z</time>
      </trkpt>
      <trkpt lat="45.50039" lon="14.0634">
        <ele>844.661743164061</ele>
        <time>2007-02-24T09:46:07Z</time>
      </trkpt>
      <trkpt lat="45.50039" lon="14.06342">
        <ele>858.103454589844</ele>
        <time>2007-02-24T09:46:08Z</time>
      </trkpt>
      <trkpt lat="45.50033" lon="14.06347">
        <ele>854.262939453124</ele>
        <time>2007-02-24T09:46:17Z</time>
      </trkpt>
      <trkpt lat="45.50022" lon="14.06353">
        <ele>857.646240234376</ele>
        <time>2007-02-24T09:46:32Z</time>
      </trkpt>
      <trkpt lat="45.50018" lon="14.06359">
        <ele>858.591064453126</ele>
        <time>2007-02-24T09:46:48Z</time>
      </trkpt>
      <trkpt lat="45.5002" lon="14.06364">
        <ele>859.566528320313</ele>
        <time>2007-02-24T09:47:24Z</time>
      </trkpt>
      <trkpt lat="45.50018" lon="14.0637">
        <ele>860.023681640626</ele>
        <time>2007-02-24T09:47:38Z</time>
      </trkpt>
      <trkpt lat="45.50014" lon="14.06387">
        <ele>860.999084472655</ele>
        <time>2007-02-24T09:48:02Z</time>
      </trkpt>
      <trkpt lat="45.50009" lon="14.06404">
        <ele>861.486694335938</ele>
        <time>2007-02-24T09:48:24Z</time>
      </trkpt>
      <trkpt lat="45.49994" lon="14.06415">
        <ele>862.431579589842</ele>
        <time>2007-02-24T09:48:44Z</time>
      </trkpt>
      <trkpt lat="45.49988" lon="14.06417">
        <ele>862.919311523437</ele>
        <time>2007-02-24T09:48:51Z</time>
      </trkpt>
      <trkpt lat="45.49971" lon="14.0643">
        <ele>864.351867675782</ele>
        <time>2007-02-24T09:49:16Z</time>
      </trkpt>
      <trkpt lat="45.49966" lon="14.06439">
        <ele>865.327209472657</ele>
        <time>2007-02-24T09:49:25Z</time>
      </trkpt>
      <trkpt lat="45.49962" lon="14.06467">
        <ele>865.327209472657</ele>
        <time>2007-02-24T09:49:48Z</time>
      </trkpt>
      <trkpt lat="45.49956" lon="14.06484">
        <ele>867.735107421876</ele>
        <time>2007-02-24T09:50:10Z</time>
      </trkpt>
      <trkpt lat="45.49949" lon="14.06505">
        <ele>869.655334472656</ele>
        <time>2007-02-24T09:50:32Z</time>
      </trkpt>
      <trkpt lat="45.49943" lon="14.0652">
        <ele>871.087890625001</ele>
        <time>2007-02-24T09:50:51Z</time>
      </trkpt>
      <trkpt lat="45.49934" lon="14.06544">
        <ele>872.5205078125</ele>
        <time>2007-02-24T09:51:17Z</time>
      </trkpt>
      <trkpt lat="45.49923" lon="14.06561">
        <ele>875.903747558594</ele>
        <time>2007-02-24T09:51:42Z</time>
      </trkpt>
      <trkpt lat="45.49913" lon="14.0658">
        <ele>877.336303710936</ele>
        <time>2007-02-24T09:52:06Z</time>
      </trkpt>
      <trkpt lat="45.49891" lon="14.06593">
        <ele>880.719604492188</ele>
        <time>2007-02-24T09:52:39Z</time>
      </trkpt>
      <trkpt lat="45.49874" lon="14.06606">
        <ele>883.097045898438</ele>
        <time>2007-02-24T09:53:01Z</time>
      </trkpt>
      <trkpt lat="45.4987" lon="14.06623">
        <ele>885.504943847657</ele>
        <time>2007-02-24T09:53:22Z</time>
      </trkpt>
      <trkpt lat="45.49865" lon="14.06634">
        <ele>886.480285644532</ele>
        <time>2007-02-24T09:53:37Z</time>
      </trkpt>
      <trkpt lat="45.49861" lon="14.06653">
        <ele>887.912902832032</ele>
        <time>2007-02-24T09:53:58Z</time>
      </trkpt>
      <trkpt lat="45.49861" lon="14.06673">
        <ele>891.265686035156</ele>
        <time>2007-02-24T09:54:19Z</time>
      </trkpt>
      <trkpt lat="45.49861" lon="14.06673">
        <ele>887.425170898437</ele>
        <time>2007-02-24T09:54:21Z</time>
      </trkpt>
      <trkpt lat="45.49861" lon="14.06675">
        <ele>895.136657714845</ele>
        <time>2007-02-24T09:54:22Z</time>
      </trkpt>
      <trkpt lat="45.49861" lon="14.06675">
        <ele>891.265686035156</ele>
        <time>2007-02-24T09:54:23Z</time>
      </trkpt>
      <trkpt lat="45.49861" lon="14.06683">
        <ele>892.728698730468</ele>
        <time>2007-02-24T09:54:43Z</time>
      </trkpt>
      <trkpt lat="45.49861" lon="14.06698">
        <ele>893.216369628905</ele>
        <time>2007-02-24T09:55:07Z</time>
      </trkpt>
      <trkpt lat="45.49861" lon="14.06711">
        <ele>895.136657714845</ele>
        <time>2007-02-24T09:55:22Z</time>
      </trkpt>
      <trkpt lat="45.49863" lon="14.06724">
        <ele>898.001770019532</ele>
        <time>2007-02-24T09:55:40Z</time>
      </trkpt>
      <trkpt lat="45.49868" lon="14.06737">
        <ele>899.464782714844</ele>
        <time>2007-02-24T09:55:58Z</time>
      </trkpt>
      <trkpt lat="45.49865" lon="14.06756">
        <ele>901.842285156251</ele>
        <time>2007-02-24T09:56:17Z</time>
      </trkpt>
      <trkpt lat="45.49857" lon="14.06774">
        <ele>906.17041015625</ele>
        <time>2007-02-24T09:56:36Z</time>
      </trkpt>
      <trkpt lat="45.4985" lon="14.06771">
        <ele>906.658081054687</ele>
        <time>2007-02-24T09:56:52Z</time>
      </trkpt>
      <trkpt lat="45.49842" lon="14.06774">
        <ele>909.065979003907</ele>
        <time>2007-02-24T09:57:09Z</time>
      </trkpt>
      <trkpt lat="45.4984" lon="14.06776">
        <ele>909.553710937499</ele>
        <time>2007-02-24T09:57:29Z</time>
      </trkpt>
      <trkpt lat="45.4984" lon="14.06778">
        <ele>910.010925292969</ele>
        <time>2007-02-24T09:58:02Z</time>
      </trkpt>
      <trkpt lat="45.4984" lon="14.06784">
        <ele>910.498535156249</ele>
        <time>2007-02-24T09:58:16Z</time>
      </trkpt>
      <trkpt lat="45.49838" lon="14.06795">
        <ele>912.906494140626</ele>
        <time>2007-02-24T10:00:25Z</time>
      </trkpt>
      <trkpt lat="45.49835" lon="14.06806">
        <ele>913.881835937501</ele>
        <time>2007-02-24T10:00:40Z</time>
      </trkpt>
      <trkpt lat="45.49833" lon="14.06816">
        <ele>915.314392089843</ele>
        <time>2007-02-24T10:00:51Z</time>
      </trkpt>
      <trkpt lat="45.49831" lon="14.06827">
        <ele>917.722290039062</ele>
        <time>2007-02-24T10:01:02Z</time>
      </trkpt>
      <trkpt lat="45.4982" lon="14.06838">
        <ele>919.154907226562</ele>
        <time>2007-02-24T10:01:20Z</time>
      </trkpt>
      <trkpt lat="45.49805" lon="14.06853">
        <ele>919.642517089844</ele>
        <time>2007-02-24T10:01:41Z</time>
      </trkpt>
      <trkpt lat="45.49797" lon="14.0687">
        <ele>921.562805175781</ele>
        <time>2007-02-24T10:02:01Z</time>
      </trkpt>
      <trkpt lat="45.4979" lon="14.06885">
        <ele>923.483032226564</ele>
        <time>2007-02-24T10:02:18Z</time>
      </trkpt>
      <trkpt lat="45.49778" lon="14.06889">
        <ele>923.483032226564</ele>
        <time>2007-02-24T10:02:35Z</time>
      </trkpt>
      <trkpt lat="45.49769" lon="14.06892">
        <ele>926.378662109375</ele>
        <time>2007-02-24T10:02:52Z</time>
      </trkpt>
      <trkpt lat="45.4976" lon="14.06898">
        <ele>927.81121826172</ele>
        <time>2007-02-24T10:03:11Z</time>
      </trkpt>
      <trkpt lat="45.49754" lon="14.06907">
        <ele>929.243774414062</ele>
        <time>2007-02-24T10:03:25Z</time>
      </trkpt>
      <trkpt lat="45.49747" lon="14.06911">
        <ele>930.706787109374</ele>
        <time>2007-02-24T10:03:39Z</time>
      </trkpt>
      <trkpt lat="45.49741" lon="14.06917">
        <ele>934.547302246093</ele>
        <time>2007-02-24T10:03:54Z</time>
      </trkpt>
      <trkpt lat="45.49732" lon="14.0693">
        <ele>935.492126464843</ele>
        <time>2007-02-24T10:04:12Z</time>
      </trkpt>
      <trkpt lat="45.49728" lon="14.06937">
        <ele>938.875427246095</ele>
        <time>2007-02-24T10:04:23Z</time>
      </trkpt>
      <trkpt lat="45.49717" lon="14.06947">
        <ele>940.307983398437</ele>
        <time>2007-02-24T10:04:40Z</time>
      </trkpt>
      <trkpt lat="45.49705" lon="14.0696">
        <ele>943.203613281249</ele>
        <time>2007-02-24T10:05:02Z</time>
      </trkpt>
      <trkpt lat="45.49694" lon="14.06969">
        <ele>944.636169433594</ele>
        <time>2007-02-24T10:05:20Z</time>
      </trkpt>
      <trkpt lat="45.49685" lon="14.06982">
        <ele>947.044128417968</ele>
        <time>2007-02-24T10:05:38Z</time>
      </trkpt>
      <trkpt lat="45.49681" lon="14.06992">
        <ele>947.53173828125</ele>
        <time>2007-02-24T10:05:54Z</time>
      </trkpt>
      <trkpt lat="45.4967" lon="14.07005">
        <ele>948.476684570313</ele>
        <time>2007-02-24T10:06:13Z</time>
      </trkpt>
      <trkpt lat="45.49662" lon="14.07016">
        <ele>949.452026367187</ele>
        <time>2007-02-24T10:06:30Z</time>
      </trkpt>
      <trkpt lat="45.49657" lon="14.07022">
        <ele>949.9091796875</ele>
        <time>2007-02-24T10:06:47Z</time>
      </trkpt>
      <trkpt lat="45.49651" lon="14.07035">
        <ele>950.396911621095</ele>
        <time>2007-02-24T10:07:11Z</time>
      </trkpt>
      <trkpt lat="45.4964" lon="14.07053">
        <ele>950.884521484375</ele>
        <time>2007-02-24T10:07:30Z</time>
      </trkpt>
      <trkpt lat="45.49629" lon="14.0707">
        <ele>950.884521484375</ele>
        <time>2007-02-24T10:07:47Z</time>
      </trkpt>
      <trkpt lat="45.49619" lon="14.07087">
        <ele>954.237365722656</ele>
        <time>2007-02-24T10:08:05Z</time>
      </trkpt>
      <trkpt lat="45.49614" lon="14.07102">
        <ele>956.645324707031</ele>
        <time>2007-02-24T10:08:21Z</time>
      </trkpt>
      <trkpt lat="45.49612" lon="14.07117">
        <ele>956.645324707031</ele>
        <time>2007-02-24T10:08:32Z</time>
      </trkpt>
      <trkpt lat="45.4961" lon="14.07145">
        <ele>955.700378417969</ele>
        <time>2007-02-24T10:08:51Z</time>
      </trkpt>
      <trkpt lat="45.49608" lon="14.0716">
        <ele>960.028564453125</ele>
        <time>2007-02-24T10:09:03Z</time>
      </trkpt>
      <trkpt lat="45.49608" lon="14.0716">
        <ele>955.700378417969</ele>
        <time>2007-02-24T10:09:04Z</time>
      </trkpt>
      <trkpt lat="45.49602" lon="14.07177">
        <ele>959.05322265625</ele>
        <time>2007-02-24T10:09:20Z</time>
      </trkpt>
      <trkpt lat="45.49595" lon="14.07201">
        <ele>958.077880859376</ele>
        <time>2007-02-24T10:09:37Z</time>
      </trkpt>
      <trkpt lat="45.49584" lon="14.07216">
        <ele>961.46112060547</ele>
        <time>2007-02-24T10:09:55Z</time>
      </trkpt>
      <trkpt lat="45.49569" lon="14.07226">
        <ele>962.406005859375</ele>
        <time>2007-02-24T10:10:13Z</time>
      </trkpt>
      <trkpt lat="45.49552" lon="14.07226">
        <ele>962.89373779297</ele>
        <time>2007-02-24T10:10:31Z</time>
      </trkpt>
      <trkpt lat="45.49539" lon="14.07224">
        <ele>963.381347656249</ele>
        <time>2007-02-24T10:10:50Z</time>
      </trkpt>
      <trkpt lat="45.49533" lon="14.07224">
        <ele>963.869079589844</ele>
        <time>2007-02-24T10:11:06Z</time>
      </trkpt>
      <trkpt lat="45.49526" lon="14.07226">
        <ele>964.813903808594</ele>
        <time>2007-02-24T10:11:23Z</time>
      </trkpt>
      <trkpt lat="45.4952" lon="14.07226">
        <ele>965.301574707031</ele>
        <time>2007-02-24T10:11:43Z</time>
      </trkpt>
      <trkpt lat="45.49511" lon="14.07222">
        <ele>966.276916503906</ele>
        <time>2007-02-24T10:11:59Z</time>
      </trkpt>
      <trkpt lat="45.49499" lon="14.0722">
        <ele>967.709472656251</ele>
        <time>2007-02-24T10:12:15Z</time>
      </trkpt>
      <trkpt lat="45.49488" lon="14.07213">
        <ele>969.142089843751</ele>
        <time>2007-02-24T10:12:29Z</time>
      </trkpt>
      <trkpt lat="45.49479" lon="14.07203">
        <ele>971.06231689453</ele>
        <time>2007-02-24T10:12:46Z</time>
      </trkpt>
      <trkpt lat="45.49469" lon="14.07192">
        <ele>972.982543945312</ele>
        <time>2007-02-24T10:13:05Z</time>
      </trkpt>
      <trkpt lat="45.49456" lon="14.07188">
        <ele>974.902770996094</ele>
        <time>2007-02-24T10:13:21Z</time>
      </trkpt>
      <trkpt lat="45.49445" lon="14.07183">
        <ele>976.365844726561</ele>
        <time>2007-02-24T10:13:37Z</time>
      </trkpt>
      <trkpt lat="45.49434" lon="14.07179">
        <ele>978.773742675781</ele>
        <time>2007-02-24T10:13:55Z</time>
      </trkpt>
      <trkpt lat="45.49426" lon="14.07179">
        <ele>979.718627929688</ele>
        <time>2007-02-24T10:14:10Z</time>
      </trkpt>
      <trkpt lat="45.49421" lon="14.07177">
        <ele>980.206298828126</ele>
        <time>2007-02-24T10:14:22Z</time>
      </trkpt>
      <trkpt lat="45.49411" lon="14.07175">
        <ele>980.693969726563</ele>
        <time>2007-02-24T10:14:39Z</time>
      </trkpt>
      <trkpt lat="45.49406" lon="14.07173">
        <ele>981.638916015625</ele>
        <time>2007-02-24T10:14:59Z</time>
      </trkpt>
      <trkpt lat="45.49398" lon="14.07168">
        <ele>982.6142578125</ele>
        <time>2007-02-24T10:15:21Z</time>
      </trkpt>
      <trkpt lat="45.49383" lon="14.07158">
        <ele>983.55908203125</ele>
        <time>2007-02-24T10:15:39Z</time>
      </trkpt>
      <trkpt lat="45.4937" lon="14.07145">
        <ele>984.534484863282</ele>
        <time>2007-02-24T10:16:00Z</time>
      </trkpt>
      <trkpt lat="45.49357" lon="14.0714">
        <ele>987.399597167969</ele>
        <time>2007-02-24T10:16:20Z</time>
      </trkpt>
      <trkpt lat="45.49344" lon="14.07145">
        <ele>990.295227050781</ele>
        <time>2007-02-24T10:16:39Z</time>
      </trkpt>
      <trkpt lat="45.49333" lon="14.07151">
        <ele>992.703063964843</ele>
        <time>2007-02-24T10:16:56Z</time>
      </trkpt>
      <trkpt lat="45.49325" lon="14.07162">
        <ele>996.055908203124</ele>
        <time>2007-02-24T10:17:14Z</time>
      </trkpt>
      <trkpt lat="45.49316" lon="14.07164">
        <ele>997.976135253907</ele>
        <time>2007-02-24T10:17:32Z</time>
      </trkpt>
      <trkpt lat="45.49312" lon="14.07156">
        <ele>1000.38409423828</ele>
        <time>2007-02-24T10:17:48Z</time>
      </trkpt>
      <trkpt lat="45.49305" lon="14.07147">
        <ele>1002.30426025391</ele>
        <time>2007-02-24T10:18:03Z</time>
      </trkpt>
      <trkpt lat="45.49297" lon="14.07138">
        <ele>1004.71228027344</ele>
        <time>2007-02-24T10:18:21Z</time>
      </trkpt>
      <trkpt lat="45.49286" lon="14.07132">
        <ele>1006.14477539062</ele>
        <time>2007-02-24T10:18:39Z</time>
      </trkpt>
      <trkpt lat="45.49278" lon="14.07128">
        <ele>1008.06506347656</ele>
        <time>2007-02-24T10:18:56Z</time>
      </trkpt>
      <trkpt lat="45.49267" lon="14.0713">
        <ele>1009.52813720703</ele>
        <time>2007-02-24T10:19:13Z</time>
      </trkpt>
      <trkpt lat="45.49256" lon="14.07143">
        <ele>1011.44830322266</ele>
        <time>2007-02-24T10:19:32Z</time>
      </trkpt>
      <trkpt lat="45.4925" lon="14.07156">
        <ele>1012.39318847656</ele>
        <time>2007-02-24T10:19:49Z</time>
      </trkpt>
      <trkpt lat="45.49245" lon="14.07162">
        <ele>1013.36853027344</ele>
        <time>2007-02-24T10:20:07Z</time>
      </trkpt>
      <trkpt lat="45.49241" lon="14.07173">
        <ele>1014.80108642578</ele>
        <time>2007-02-24T10:20:33Z</time>
      </trkpt>
      <trkpt lat="45.49241" lon="14.07175">
        <ele>1015.77648925781</ele>
        <time>2007-02-24T10:20:35Z</time>
      </trkpt>
      <trkpt lat="45.49232" lon="14.07186">
        <ele>1017.20904541016</ele>
        <time>2007-02-24T10:20:52Z</time>
      </trkpt>
      <trkpt lat="45.49226" lon="14.07198">
        <ele>1020.10467529297</ele>
        <time>2007-02-24T10:21:11Z</time>
      </trkpt>
      <trkpt lat="45.49226" lon="14.07198">
        <ele>1021.04949951172</ele>
        <time>2007-02-24T10:21:14Z</time>
      </trkpt>
      <trkpt lat="45.49226" lon="14.07201">
        <ele>1012.88092041016</ele>
        <time>2007-02-24T10:21:15Z</time>
      </trkpt>
      <trkpt lat="45.49226" lon="14.07201">
        <ele>1021.53717041016</ele>
        <time>2007-02-24T10:21:16Z</time>
      </trkpt>
      <trkpt lat="45.49222" lon="14.07211">
        <ele>1023.45745849609</ele>
        <time>2007-02-24T10:21:36Z</time>
      </trkpt>
      <trkpt lat="45.4922" lon="14.07222">
        <ele>1027.78564453125</ele>
        <time>2007-02-24T10:21:55Z</time>
      </trkpt>
      <trkpt lat="45.4922" lon="14.07222">
        <ele>1027.2978515625</ele>
        <time>2007-02-24T10:21:56Z</time>
      </trkpt>
      <trkpt lat="45.49215" lon="14.07231">
        <ele>1028.76098632812</ele>
        <time>2007-02-24T10:22:10Z</time>
      </trkpt>
      <trkpt lat="45.49211" lon="14.07241">
        <ele>1031.13842773437</ele>
        <time>2007-02-24T10:22:27Z</time>
      </trkpt>
      <trkpt lat="45.49207" lon="14.0725">
        <ele>1033.54626464844</ele>
        <time>2007-02-24T10:22:42Z</time>
      </trkpt>
      <trkpt lat="45.49202" lon="14.07259">
        <ele>1036.92956542969</ele>
        <time>2007-02-24T10:22:57Z</time>
      </trkpt>
      <trkpt lat="45.492" lon="14.07261">
        <ele>1038.36218261719</ele>
        <time>2007-02-24T10:23:03Z</time>
      </trkpt>
      <trkpt lat="45.49192" lon="14.07271">
        <ele>1041.25769042969</ele>
        <time>2007-02-24T10:23:23Z</time>
      </trkpt>
      <trkpt lat="45.49187" lon="14.07278">
        <ele>1044.12292480469</ele>
        <time>2007-02-24T10:23:39Z</time>
      </trkpt>
      <trkpt lat="45.49181" lon="14.07286">
        <ele>1047.0185546875</ele>
        <time>2007-02-24T10:23:56Z</time>
      </trkpt>
      <trkpt lat="45.49175" lon="14.07293">
        <ele>1049.88354492188</ele>
        <time>2007-02-24T10:24:13Z</time>
      </trkpt>
      <trkpt lat="45.4917" lon="14.07301">
        <ele>1053.26696777344</ele>
        <time>2007-02-24T10:24:29Z</time>
      </trkpt>
      <trkpt lat="45.49166" lon="14.07308">
        <ele>1054.69946289063</ele>
        <time>2007-02-24T10:24:46Z</time>
      </trkpt>
      <trkpt lat="45.4916" lon="14.07319">
        <ele>1057.59509277344</ele>
        <time>2007-02-24T10:25:05Z</time>
      </trkpt>
      <trkpt lat="45.49151" lon="14.07327">
        <ele>1060.46020507812</ele>
        <time>2007-02-24T10:25:22Z</time>
      </trkpt>
      <trkpt lat="45.49151" lon="14.07344">
        <ele>1060.46020507812</ele>
        <time>2007-02-24T10:51:04Z</time>
      </trkpt>
      <trkpt lat="45.49151" lon="14.07344">
        <ele>1060.94787597656</ele>
        <time>2007-02-24T10:51:25Z</time>
      </trkpt>
      <trkpt lat="45.49142" lon="14.07329">
        <ele>1059.02758789063</ele>
        <time>2007-02-24T10:51:55Z</time>
      </trkpt>
      <trkpt lat="45.49132" lon="14.07314">
        <ele>1056.61975097656</ele>
        <time>2007-02-24T10:52:14Z</time>
      </trkpt>
      <trkpt lat="45.49127" lon="14.07304">
        <ele>1054.21179199219</ele>
        <time>2007-02-24T10:52:37Z</time>
      </trkpt>
      <trkpt lat="45.49127" lon="14.07293">
        <ele>1051.3466796875</ele>
        <time>2007-02-24T10:52:49Z</time>
      </trkpt>
      <trkpt lat="45.49125" lon="14.07284">
        <ele>1049.42639160156</ele>
        <time>2007-02-24T10:52:59Z</time>
      </trkpt>
      <trkpt lat="45.49123" lon="14.07271">
        <ele>1046.53076171875</ele>
        <time>2007-02-24T10:53:16Z</time>
      </trkpt>
      <trkpt lat="45.49121" lon="14.07265">
        <ele>1043.17797851563</ele>
        <time>2007-02-24T10:53:26Z</time>
      </trkpt>
      <trkpt lat="45.49117" lon="14.07256">
        <ele>1040.28234863281</ele>
        <time>2007-02-24T10:53:38Z</time>
      </trkpt>
      <trkpt lat="45.4911" lon="14.07248">
        <ele>1036.92956542969</ele>
        <time>2007-02-24T10:53:53Z</time>
      </trkpt>
      <trkpt lat="45.49108" lon="14.07241">
        <ele>1034.03405761719</ele>
        <time>2007-02-24T10:54:01Z</time>
      </trkpt>
      <trkpt lat="45.49108" lon="14.07239">
        <ele>1034.03405761719</ele>
        <time>2007-02-24T10:54:02Z</time>
      </trkpt>
      <trkpt lat="45.49106" lon="14.07224">
        <ele>1032.60144042969</ele>
        <time>2007-02-24T10:54:19Z</time>
      </trkpt>
      <trkpt lat="45.49104" lon="14.07213">
        <ele>1029.21813964844</ele>
        <time>2007-02-24T10:54:31Z</time>
      </trkpt>
      <trkpt lat="45.49104" lon="14.07213">
        <ele>1029.21813964844</ele>
        <time>2007-02-24T10:54:32Z</time>
      </trkpt>
      <trkpt lat="45.49106" lon="14.07213">
        <ele>1029.70581054687</ele>
        <time>2007-02-24T10:54:54Z</time>
      </trkpt>
      <trkpt lat="45.49104" lon="14.07205">
        <ele>1027.78564453125</ele>
        <time>2007-02-24T10:55:13Z</time>
      </trkpt>
      <trkpt lat="45.49102" lon="14.07188">
        <ele>1026.35302734375</ele>
        <time>2007-02-24T10:55:32Z</time>
      </trkpt>
      <trkpt lat="45.49102" lon="14.07168">
        <ele>1024.43273925781</ele>
        <time>2007-02-24T10:55:47Z</time>
      </trkpt>
      <trkpt lat="45.49102" lon="14.07145">
        <ele>1022.02490234375</ele>
        <time>2007-02-24T10:56:05Z</time>
      </trkpt>
      <trkpt lat="45.49099" lon="14.07121">
        <ele>1020.10467529297</ele>
        <time>2007-02-24T10:56:24Z</time>
      </trkpt>
      <trkpt lat="45.49099" lon="14.07117">
        <ele>1020.10467529297</ele>
        <time>2007-02-24T10:56:26Z</time>
      </trkpt>
      <trkpt lat="45.49097" lon="14.07113">
        <ele>1019.12933349609</ele>
        <time>2007-02-24T10:56:37Z</time>
      </trkpt>
      <trkpt lat="45.49108" lon="14.07087">
        <ele>1018.6416015625</ele>
        <time>2007-02-24T10:56:58Z</time>
      </trkpt>
      <trkpt lat="45.49117" lon="14.07068">
        <ele>1019.12933349609</ele>
        <time>2007-02-24T10:57:16Z</time>
      </trkpt>
      <trkpt lat="45.49121" lon="14.07061">
        <ele>1017.20904541016</ele>
        <time>2007-02-24T10:57:22Z</time>
      </trkpt>
      <trkpt lat="45.49123" lon="14.07059">
        <ele>1017.20904541016</ele>
        <time>2007-02-24T10:57:25Z</time>
      </trkpt>
      <trkpt lat="45.49125" lon="14.0705">
        <ele>1016.72137451172</ele>
        <time>2007-02-24T10:57:32Z</time>
      </trkpt>
      <trkpt lat="45.49127" lon="14.07031">
        <ele>1015.77648925781</ele>
        <time>2007-02-24T10:57:48Z</time>
      </trkpt>
      <trkpt lat="45.49129" lon="14.07022">
        <ele>1016.26416015625</ele>
        <time>2007-02-24T10:57:55Z</time>
      </trkpt>
      <trkpt lat="45.49125" lon="14.07001">
        <ele>1018.18438720703</ele>
        <time>2007-02-24T10:58:14Z</time>
      </trkpt>
      <trkpt lat="45.49119" lon="14.06986">
        <ele>1021.04949951172</ele>
        <time>2007-02-24T10:58:32Z</time>
      </trkpt>
      <trkpt lat="45.49108" lon="14.06982">
        <ele>1022.02490234375</ele>
        <time>2007-02-24T10:58:49Z</time>
      </trkpt>
      <trkpt lat="45.49102" lon="14.06971">
        <ele>1022.9697265625</ele>
        <time>2007-02-24T10:59:04Z</time>
      </trkpt>
      <trkpt lat="45.49095" lon="14.06965">
        <ele>1024.89001464844</ele>
        <time>2007-02-24T10:59:21Z</time>
      </trkpt>
      <trkpt lat="45.49089" lon="14.0696">
        <ele>1025.37768554688</ele>
        <time>2007-02-24T10:59:36Z</time>
      </trkpt>
      <trkpt lat="45.49082" lon="14.06954">
        <ele>1026.35302734375</ele>
        <time>2007-02-24T10:59:53Z</time>
      </trkpt>
      <trkpt lat="45.4908" lon="14.06954">
        <ele>1025.86535644531</ele>
        <time>2007-02-24T11:00:07Z</time>
      </trkpt>
      <trkpt lat="45.49076" lon="14.06947">
        <ele>1025.86535644531</ele>
        <time>2007-02-24T11:01:09Z</time>
      </trkpt>
      <trkpt lat="45.49072" lon="14.06943">
        <ele>1028.27331542969</ele>
        <time>2007-02-24T11:01:23Z</time>
      </trkpt>
      <trkpt lat="45.49063" lon="14.0693">
        <ele>1029.21813964844</ele>
        <time>2007-02-24T11:01:40Z</time>
      </trkpt>
      <trkpt lat="45.4905" lon="14.06904">
        <ele>1030.19348144531</ele>
        <time>2007-02-24T11:02:03Z</time>
      </trkpt>
      <trkpt lat="45.49039" lon="14.06885">
        <ele>1030.19348144531</ele>
        <time>2007-02-24T11:02:22Z</time>
      </trkpt>
      <trkpt lat="45.49022" lon="14.06864">
        <ele>1030.19348144531</ele>
        <time>2007-02-24T11:02:42Z</time>
      </trkpt>
      <trkpt lat="45.49009" lon="14.06844">
        <ele>1030.68115234375</ele>
        <time>2007-02-24T11:02:59Z</time>
      </trkpt>
      <trkpt lat="45.49003" lon="14.06832">
        <ele>1030.68115234375</ele>
        <time>2007-02-24T11:03:18Z</time>
      </trkpt>
      <trkpt lat="45.48999" lon="14.06814">
        <ele>1031.13842773437</ele>
        <time>2007-02-24T11:03:35Z</time>
      </trkpt>
      <trkpt lat="45.48994" lon="14.06791">
        <ele>1031.62609863281</ele>
        <time>2007-02-24T11:03:54Z</time>
      </trkpt>
      <trkpt lat="45.48994" lon="14.06789">
        <ele>1031.13842773437</ele>
        <time>2007-02-24T11:03:56Z</time>
      </trkpt>
      <trkpt lat="45.48988" lon="14.06771">
        <ele>1031.13842773437</ele>
        <time>2007-02-24T11:04:14Z</time>
      </trkpt>
      <trkpt lat="45.48981" lon="14.06754">
        <ele>1030.68115234375</ele>
        <time>2007-02-24T11:04:36Z</time>
      </trkpt>
      <trkpt lat="45.48975" lon="14.06744">
        <ele>1030.19348144531</ele>
        <time>2007-02-24T11:04:47Z</time>
      </trkpt>
      <trkpt lat="45.48969" lon="14.06731">
        <ele>1030.19348144531</ele>
        <time>2007-02-24T11:05:02Z</time>
      </trkpt>
      <trkpt lat="45.48962" lon="14.0672">
        <ele>1030.68115234375</ele>
        <time>2007-02-24T11:05:29Z</time>
      </trkpt>
      <trkpt lat="45.48958" lon="14.06711">
        <ele>1030.68115234375</ele>
        <time>2007-02-24T11:05:44Z</time>
      </trkpt>
      <trkpt lat="45.4896" lon="14.0669">
        <ele>1031.13842773437</ele>
        <time>2007-02-24T11:06:07Z</time>
      </trkpt>
      <trkpt lat="45.48964" lon="14.06675">
        <ele>1027.2978515625</ele>
        <time>2007-02-24T11:06:23Z</time>
      </trkpt>
      <trkpt lat="45.48964" lon="14.06673">
        <ele>1031.62609863281</ele>
        <time>2007-02-24T11:06:24Z</time>
      </trkpt>
      <trkpt lat="45.48966" lon="14.06664">
        <ele>1028.76098632812</ele>
        <time>2007-02-24T11:06:42Z</time>
      </trkpt>
      <trkpt lat="45.48969" lon="14.0666">
        <ele>1028.76098632812</ele>
        <time>2007-02-24T11:06:45Z</time>
      </trkpt>
      <trkpt lat="45.48979" lon="14.0663">
        <ele>1026.81030273438</ele>
        <time>2007-02-24T11:07:03Z</time>
      </trkpt>
      <trkpt lat="45.48979" lon="14.06628">
        <ele>1027.2978515625</ele>
        <time>2007-02-24T11:07:05Z</time>
      </trkpt>
      <trkpt lat="45.48984" lon="14.06619">
        <ele>1025.86535644531</ele>
        <time>2007-02-24T11:07:11Z</time>
      </trkpt>
      <trkpt lat="45.4899" lon="14.0661">
        <ele>1026.35302734375</ele>
        <time>2007-02-24T11:07:19Z</time>
      </trkpt>
      <trkpt lat="45.49003" lon="14.06576">
        <ele>1022.9697265625</ele>
        <time>2007-02-24T11:07:49Z</time>
      </trkpt>
      <trkpt lat="45.49016" lon="14.06565">
        <ele>1019.61694335937</ele>
        <time>2007-02-24T11:08:12Z</time>
      </trkpt>
      <trkpt lat="45.4902" lon="14.06544">
        <ele>1016.72137451172</ele>
        <time>2007-02-24T11:08:38Z</time>
      </trkpt>
      <trkpt lat="45.49026" lon="14.06535">
        <ele>1013.36853027344</ele>
        <time>2007-02-24T11:08:52Z</time>
      </trkpt>
      <trkpt lat="45.4903755187988" lon="14.0649337768555">
        <ele>1014.80108642578</ele>
        <time>2007-02-24T11:10:55Z</time>
      </trkpt>
      <trkpt lat="45.49044" lon="14.06514">
        <ele>1011.44830322266</ele>
        <time>2007-02-24T11:11:24Z</time>
      </trkpt>
      <trkpt lat="45.49063" lon="14.0651">
        <ele>1008.55267333984</ele>
        <time>2007-02-24T11:11:54Z</time>
      </trkpt>
      <trkpt lat="45.49089" lon="14.06499">
        <ele>1011.44830322266</ele>
        <time>2007-02-24T11:12:27Z</time>
      </trkpt>
      <trkpt lat="45.49102" lon="14.0649">
        <ele>1012.88092041016</ele>
        <time>2007-02-24T11:12:49Z</time>
      </trkpt>
      <trkpt lat="45.49123" lon="14.06471">
        <ele>1012.88092041016</ele>
        <time>2007-02-24T11:13:25Z</time>
      </trkpt>
      <trkpt lat="45.49142" lon="14.0646">
        <ele>1013.36853027344</ele>
        <time>2007-02-24T11:13:49Z</time>
      </trkpt>
      <trkpt lat="45.4916" lon="14.06452">
        <ele>1014.3134765625</ele>
        <time>2007-02-24T11:14:19Z</time>
      </trkpt>
      <trkpt lat="45.49187" lon="14.06458">
        <ele>1013.85626220703</ele>
        <time>2007-02-24T11:14:59Z</time>
      </trkpt>
      <trkpt lat="45.49211" lon="14.06456">
        <ele>1010.47296142578</ele>
        <time>2007-02-24T11:15:26Z</time>
      </trkpt>
      <trkpt lat="45.49213" lon="14.06456">
        <ele>1010.01574707031</ele>
        <time>2007-02-24T11:15:31Z</time>
      </trkpt>
      <trkpt lat="45.49215" lon="14.06456">
        <ele>1010.01574707031</ele>
        <time>2007-02-24T11:15:33Z</time>
      </trkpt>
      <trkpt lat="45.49258" lon="14.06482">
        <ele>1007.60784912109</ele>
        <time>2007-02-24T11:16:04Z</time>
      </trkpt>
      <trkpt lat="45.49286" lon="14.06492">
        <ele>1009.04040527344</ele>
        <time>2007-02-24T11:16:33Z</time>
      </trkpt>
      <trkpt lat="45.4931" lon="14.06514">
        <ele>1012.88092041016</ele>
        <time>2007-02-24T11:17:14Z</time>
      </trkpt>
      <trkpt lat="45.49329" lon="14.06529">
        <ele>1015.77648925781</ele>
        <time>2007-02-24T11:17:39Z</time>
      </trkpt>
      <trkpt lat="45.49342" lon="14.06557">
        <ele>1019.12933349609</ele>
        <time>2007-02-24T11:18:12Z</time>
      </trkpt>
      <trkpt lat="45.49359" lon="14.06589">
        <ele>1021.04949951172</ele>
        <time>2007-02-24T11:18:55Z</time>
      </trkpt>
      <trkpt lat="45.49383" lon="14.06608">
        <ele>1021.04949951172</ele>
        <time>2007-02-24T11:20:13Z</time>
      </trkpt>
      <trkpt lat="45.49393" lon="14.06613">
        <ele>1022.02490234375</ele>
        <time>2007-02-24T11:20:25Z</time>
      </trkpt>
      <trkpt lat="45.49398" lon="14.06604">
        <ele>1023.94506835938</ele>
        <time>2007-02-24T11:20:53Z</time>
      </trkpt>
      <trkpt lat="45.49398" lon="14.06604">
        <ele>1014.3134765625</ele>
        <time>2007-02-24T11:21:34Z</time>
      </trkpt>
      <trkpt lat="45.49398" lon="14.06604">
        <ele>1022.9697265625</ele>
        <time>2007-02-24T11:21:35Z</time>
      </trkpt>
      <trkpt lat="45.49398" lon="14.06604">
        <ele>1023.45745849609</ele>
        <time>2007-02-24T11:21:37Z</time>
      </trkpt>
      <trkpt lat="45.49389" lon="14.06587">
        <ele>1023.94506835938</ele>
        <time>2007-02-24T11:22:13Z</time>
      </trkpt>
      <trkpt lat="45.49393" lon="14.06561">
        <ele>1026.81030273438</ele>
        <time>2007-02-24T11:23:07Z</time>
      </trkpt>
      <trkpt lat="45.49402" lon="14.0655">
        <ele>1027.2978515625</ele>
        <time>2007-02-24T11:23:14Z</time>
      </trkpt>
      <trkpt lat="45.49421" lon="14.06499">
        <ele>1027.78564453125</ele>
        <time>2007-02-24T11:23:51Z</time>
      </trkpt>
      <trkpt lat="45.4943" lon="14.06467">
        <ele>1031.13842773437</ele>
        <time>2007-02-24T11:24:20Z</time>
      </trkpt>
      <trkpt lat="45.49434" lon="14.06456">
        <ele>1034.03405761719</ele>
        <time>2007-02-24T11:24:38Z</time>
      </trkpt>
      <trkpt lat="45.49434" lon="14.06441">
        <ele>1037.38684082031</ele>
        <time>2007-02-24T11:25:04Z</time>
      </trkpt>
      <trkpt lat="45.4943" lon="14.06424">
        <ele>1040.28234863281</ele>
        <time>2007-02-24T11:25:24Z</time>
      </trkpt>
      <trkpt lat="45.49423" lon="14.06392">
        <ele>1043.63525390625</ele>
        <time>2007-02-24T11:26:00Z</time>
      </trkpt>
      <trkpt lat="45.494270324707" lon="14.0638599395752">
        <ele>1046.53076171875</ele>
        <time>2007-02-24T11:26:22Z</time>
      </trkpt>
      <trkpt lat="45.49432" lon="14.06381">
        <ele>1050.85888671875</ele>
        <time>2007-02-24T11:27:22Z</time>
      </trkpt>
      <trkpt lat="45.49445" lon="14.06368">
        <ele>1051.3466796875</ele>
        <time>2007-02-24T11:27:50Z</time>
      </trkpt>
      <trkpt lat="45.49458" lon="14.06353">
        <ele>1053.75451660156</ele>
        <time>2007-02-24T11:28:19Z</time>
      </trkpt>
      <trkpt lat="45.49464" lon="14.06329">
        <ele>1056.13195800781</ele>
        <time>2007-02-24T11:28:44Z</time>
      </trkpt>
      <trkpt lat="45.49464" lon="14.06323">
        <ele>1055.18713378906</ele>
        <time>2007-02-24T11:28:49Z</time>
      </trkpt>
      <trkpt lat="45.49458" lon="14.06306">
        <ele>1055.18713378906</ele>
        <time>2007-02-24T11:29:18Z</time>
      </trkpt>
      <trkpt lat="45.49456" lon="14.06289">
        <ele>1054.21179199219</ele>
        <time>2007-02-24T11:29:34Z</time>
      </trkpt>
      <trkpt lat="45.49451" lon="14.06286">
        <ele>1050.37133789062</ele>
        <time>2007-02-24T11:29:39Z</time>
      </trkpt>
      <trkpt lat="45.49451" lon="14.06286">
        <ele>1055.6748046875</ele>
        <time>2007-02-24T11:29:40Z</time>
      </trkpt>
      <trkpt lat="45.49443" lon="14.06278">
        <ele>1056.61975097656</ele>
        <time>2007-02-24T11:29:59Z</time>
      </trkpt>
      <trkpt lat="45.49441" lon="14.06265">
        <ele>1059.02758789063</ele>
        <time>2007-02-24T11:30:22Z</time>
      </trkpt>
      <trkpt lat="45.49447" lon="14.06246">
        <ele>1061.435546875</ele>
        <time>2007-02-24T11:30:45Z</time>
      </trkpt>
      <trkpt lat="45.4946" lon="14.06231">
        <ele>1062.8681640625</ele>
        <time>2007-02-24T11:31:09Z</time>
      </trkpt>
      <trkpt lat="45.49466" lon="14.06211">
        <ele>1062.8681640625</ele>
        <time>2007-02-24T11:31:31Z</time>
      </trkpt>
      <trkpt lat="45.49464" lon="14.06196">
        <ele>1060.46020507812</ele>
        <time>2007-02-24T11:31:51Z</time>
      </trkpt>
      <trkpt lat="45.49462" lon="14.06192">
        <ele>1058.53991699219</ele>
        <time>2007-02-24T11:31:56Z</time>
      </trkpt>
      <trkpt lat="45.49462" lon="14.06179">
        <ele>1056.13195800781</ele>
        <time>2007-02-24T11:32:13Z</time>
      </trkpt>
      <trkpt lat="45.49464" lon="14.06173">
        <ele>1053.26696777344</ele>
        <time>2007-02-24T11:32:23Z</time>
      </trkpt>
      <trkpt lat="45.49464" lon="14.06171">
        <ele>1058.08264160156</ele>
        <time>2007-02-24T11:32:25Z</time>
      </trkpt>
      <trkpt lat="45.49464" lon="14.06171">
        <ele>1054.21179199219</ele>
        <time>2007-02-24T11:32:26Z</time>
      </trkpt>
      <trkpt lat="45.49466" lon="14.06153">
        <ele>1052.29150390625</ele>
        <time>2007-02-24T11:32:54Z</time>
      </trkpt>
      <trkpt lat="45.49462" lon="14.06136">
        <ele>1048.93872070312</ele>
        <time>2007-02-24T11:33:11Z</time>
      </trkpt>
      <trkpt lat="45.49453" lon="14.06104">
        <ele>1048.45104980469</ele>
        <time>2007-02-24T11:33:36Z</time>
      </trkpt>
      <trkpt lat="45.49443" lon="14.0607">
        <ele>1048.45104980469</ele>
        <time>2007-02-24T11:34:08Z</time>
      </trkpt>
      <trkpt lat="45.49441" lon="14.06053">
        <ele>1049.88354492188</ele>
        <time>2007-02-24T11:34:30Z</time>
      </trkpt>
      <trkpt lat="45.49432" lon="14.06055">
        <ele>1051.83435058594</ele>
        <time>2007-02-24T11:34:43Z</time>
      </trkpt>
      <trkpt lat="45.49426" lon="14.06053">
        <ele>1054.21179199219</ele>
        <time>2007-02-24T11:34:53Z</time>
      </trkpt>
      <trkpt lat="45.49415" lon="14.0605">
        <ele>1057.59509277344</ele>
        <time>2007-02-24T11:35:17Z</time>
      </trkpt>
      <trkpt lat="45.49415" lon="14.06042">
        <ele>1059.02758789063</ele>
        <time>2007-02-24T11:35:34Z</time>
      </trkpt>
      <trkpt lat="45.49415" lon="14.06029">
        <ele>1062.38037109375</ele>
        <time>2007-02-24T11:35:54Z</time>
      </trkpt>
      <trkpt lat="45.49417" lon="14.06018">
        <ele>1063.84350585937</ele>
        <time>2007-02-24T11:36:14Z</time>
      </trkpt>
      <trkpt lat="45.49415" lon="14.05999">
        <ele>1065.763671875</ele>
        <time>2007-02-24T11:36:39Z</time>
      </trkpt>
      <trkpt lat="45.49417" lon="14.05984">
        <ele>1066.70849609375</ele>
        <time>2007-02-24T11:36:54Z</time>
      </trkpt>
      <trkpt lat="45.4941635131836" lon="14.0597658157349">
        <ele>1067.68383789063</ele>
        <time>2007-02-24T11:37:16Z</time>
      </trkpt>
      <trkpt lat="45.49411" lon="14.05984">
        <ele>1068.17163085938</ele>
        <time>2007-02-24T11:37:51Z</time>
      </trkpt>
      <trkpt lat="45.49408" lon="14.05984">
        <ele>1067.1962890625</ele>
        <time>2007-02-24T11:38:32Z</time>
      </trkpt>
      <trkpt lat="45.4941596984863" lon="14.0596656799316">
        <ele>1068.17163085938</ele>
        <time>2007-02-24T11:38:37Z</time>
      </trkpt>
      <trkpt lat="45.4941253662109" lon="14.0596656799316">
        <ele>1068.17163085938</ele>
        <time>2007-02-24T11:38:48Z</time>
      </trkpt>
      <trkpt lat="45.49408" lon="14.05969">
        <ele>1071.5244140625</ele>
        <time>2007-02-24T11:39:33Z</time>
      </trkpt>
      <trkpt lat="45.49402" lon="14.05958">
        <ele>1074.87719726562</ele>
        <time>2007-02-24T11:39:55Z</time>
      </trkpt>
      <trkpt lat="45.49396" lon="14.05945">
        <ele>1077.28503417969</ele>
        <time>2007-02-24T11:40:13Z</time>
      </trkpt>
      <trkpt lat="45.49393" lon="14.05941">
        <ele>1080.1806640625</ele>
        <time>2007-02-24T11:40:31Z</time>
      </trkpt>
      <trkpt lat="45.49389" lon="14.05937">
        <ele>1082.10095214844</ele>
        <time>2007-02-24T11:40:50Z</time>
      </trkpt>
      <trkpt lat="45.49389" lon="14.05937">
        <ele>1084.99658203125</ele>
        <time>2007-02-24T11:41:02Z</time>
      </trkpt>
      <trkpt lat="45.49387" lon="14.05937">
        <ele>1086.42907714844</ele>
        <time>2007-02-24T11:41:15Z</time>
      </trkpt>
      <trkpt lat="45.49387" lon="14.0593">
        <ele>1088.34936523438</ele>
        <time>2007-02-24T11:41:29Z</time>
      </trkpt>
      <trkpt lat="45.49387" lon="14.05926">
        <ele>1088.34936523438</ele>
        <time>2007-02-24T11:41:42Z</time>
      </trkpt>
      <trkpt lat="45.49387" lon="14.05922">
        <ele>1088.83703613281</ele>
        <time>2007-02-24T11:41:55Z</time>
      </trkpt>
      <trkpt lat="45.49387" lon="14.05922">
        <ele>1089.78186035156</ele>
        <time>2007-02-24T11:42:06Z</time>
      </trkpt>
      <trkpt lat="45.49387" lon="14.05922">
        <ele>1082.10095214844</ele>
        <time>2007-02-24T11:42:10Z</time>
      </trkpt>
      <trkpt lat="45.49387" lon="14.05922">
        <ele>1090.26965332031</ele>
        <time>2007-02-24T11:42:11Z</time>
      </trkpt>
      <trkpt lat="45.49389" lon="14.05922">
        <ele>1090.26965332031</ele>
        <time>2007-02-24T11:42:38Z</time>
      </trkpt>
      <trkpt lat="45.49389" lon="14.0592">
        <ele>1089.78186035156</ele>
        <time>2007-02-24T11:43:12Z</time>
      </trkpt>
      <trkpt lat="45.49391" lon="14.05913">
        <ele>1086.42907714844</ele>
        <time>2007-02-24T11:50:39Z</time>
      </trkpt>
      <trkpt lat="45.49391" lon="14.05902">
        <ele>1085.94140625</ele>
        <time>2007-02-24T11:51:05Z</time>
      </trkpt>
      <trkpt lat="45.49393" lon="14.0589">
        <ele>1083.07629394531</ele>
        <time>2007-02-24T11:51:21Z</time>
      </trkpt>
      <trkpt lat="45.49398" lon="14.05879">
        <ele>1082.10095214844</ele>
        <time>2007-02-24T11:51:36Z</time>
      </trkpt>
      <trkpt lat="45.494" lon="14.05872">
        <ele>1078.74816894531</ele>
        <time>2007-02-24T11:52:05Z</time>
      </trkpt>
      <trkpt lat="45.49402" lon="14.0587">
        <ele>1075.36486816406</ele>
        <time>2007-02-24T11:52:17Z</time>
      </trkpt>
      <trkpt lat="45.49411" lon="14.05859">
        <ele>1072.01208496094</ele>
        <time>2007-02-24T11:52:50Z</time>
      </trkpt>
      <trkpt lat="45.49413" lon="14.05849">
        <ele>1069.11645507813</ele>
        <time>2007-02-24T11:53:05Z</time>
      </trkpt>
      <trkpt lat="45.49419" lon="14.05838">
        <ele>1065.27600097656</ele>
        <time>2007-02-24T11:53:19Z</time>
      </trkpt>
      <trkpt lat="45.49417" lon="14.05817">
        <ele>1065.27600097656</ele>
        <time>2007-02-24T11:53:34Z</time>
      </trkpt>
      <trkpt lat="45.49415" lon="14.05789">
        <ele>1062.38037109375</ele>
        <time>2007-02-24T11:53:52Z</time>
      </trkpt>
      <trkpt lat="45.49413" lon="14.05759">
        <ele>1059.02758789063</ele>
        <time>2007-02-24T11:54:17Z</time>
      </trkpt>
      <trkpt lat="45.49415" lon="14.05746">
        <ele>1056.13195800781</ele>
        <time>2007-02-24T11:54:30Z</time>
      </trkpt>
      <trkpt lat="45.49419" lon="14.05737">
        <ele>1052.29150390625</ele>
        <time>2007-02-24T11:54:45Z</time>
      </trkpt>
      <trkpt lat="45.49423" lon="14.05724">
        <ele>1048.93872070312</ele>
        <time>2007-02-24T11:55:02Z</time>
      </trkpt>
      <trkpt lat="45.49423" lon="14.05696">
        <ele>1045.5859375</ele>
        <time>2007-02-24T11:55:24Z</time>
      </trkpt>
      <trkpt lat="45.49428" lon="14.05679">
        <ele>1041.71496582031</ele>
        <time>2007-02-24T11:55:37Z</time>
      </trkpt>
      <trkpt lat="45.49428" lon="14.05677">
        <ele>1041.71496582031</ele>
        <time>2007-02-24T11:55:38Z</time>
      </trkpt>
      <trkpt lat="45.49434" lon="14.05658">
        <ele>1038.36218261719</ele>
        <time>2007-02-24T11:55:51Z</time>
      </trkpt>
      <trkpt lat="45.49436" lon="14.05645">
        <ele>1035.46655273438</ele>
        <time>2007-02-24T11:56:02Z</time>
      </trkpt>
      <trkpt lat="45.49441" lon="14.05643">
        <ele>1032.11376953125</ele>
        <time>2007-02-24T11:56:22Z</time>
      </trkpt>
      <trkpt lat="45.49441" lon="14.05643">
        <ele>1031.13842773437</ele>
        <time>2007-02-24T11:56:24Z</time>
      </trkpt>
      <trkpt lat="45.49447" lon="14.05643">
        <ele>1027.78564453125</ele>
        <time>2007-02-24T11:56:37Z</time>
      </trkpt>
      <trkpt lat="45.49451" lon="14.05643">
        <ele>1025.86535644531</ele>
        <time>2007-02-24T11:56:45Z</time>
      </trkpt>
      <trkpt lat="45.49456" lon="14.05643">
        <ele>1022.51257324219</ele>
        <time>2007-02-24T11:56:55Z</time>
      </trkpt>
      <trkpt lat="45.4946" lon="14.05641">
        <ele>1020.56182861328</ele>
        <time>2007-02-24T11:57:02Z</time>
      </trkpt>
      <trkpt lat="45.49471" lon="14.05632">
        <ele>1017.20904541016</ele>
        <time>2007-02-24T11:57:27Z</time>
      </trkpt>
      <trkpt lat="45.49473" lon="14.0563">
        <ele>1016.72137451172</ele>
        <time>2007-02-24T11:57:29Z</time>
      </trkpt>
      <trkpt lat="45.49475" lon="14.0563">
        <ele>1011.44830322266</ele>
        <time>2007-02-24T11:57:35Z</time>
      </trkpt>
      <trkpt lat="45.49477" lon="14.0563">
        <ele>1017.69671630859</ele>
        <time>2007-02-24T11:57:36Z</time>
      </trkpt>
      <trkpt lat="45.49479" lon="14.05628">
        <ele>1014.3134765625</ele>
        <time>2007-02-24T11:57:42Z</time>
      </trkpt>
      <trkpt lat="45.49494" lon="14.0563">
        <ele>1011.44830322266</ele>
        <time>2007-02-24T11:58:04Z</time>
      </trkpt>
      <trkpt lat="45.49503" lon="14.05638">
        <ele>1007.60784912109</ele>
        <time>2007-02-24T11:58:19Z</time>
      </trkpt>
      <trkpt lat="45.49531" lon="14.05647">
        <ele>1004.71228027344</ele>
        <time>2007-02-24T11:58:45Z</time>
      </trkpt>
      <trkpt lat="45.49548" lon="14.05632">
        <ele>1005.68762207031</ele>
        <time>2007-02-24T11:59:04Z</time>
      </trkpt>
      <trkpt lat="45.49552" lon="14.05617">
        <ele>1003.76733398438</ele>
        <time>2007-02-24T11:59:19Z</time>
      </trkpt>
      <trkpt lat="45.49561" lon="14.05604">
        <ele>1000.87176513672</ele>
        <time>2007-02-24T11:59:33Z</time>
      </trkpt>
      <trkpt lat="45.49572" lon="14.05598">
        <ele>998.951477050781</ele>
        <time>2007-02-24T11:59:44Z</time>
      </trkpt>
      <trkpt lat="45.49578" lon="14.05598">
        <ele>997.518920898436</ele>
        <time>2007-02-24T11:59:48Z</time>
      </trkpt>
      <trkpt lat="45.49597" lon="14.05587">
        <ele>994.135681152345</ele>
        <time>2007-02-24T12:00:03Z</time>
      </trkpt>
      <trkpt lat="45.49602" lon="14.05574">
        <ele>990.782897949218</ele>
        <time>2007-02-24T12:00:18Z</time>
      </trkpt>
      <trkpt lat="45.49604" lon="14.05559">
        <ele>987.887329101561</ele>
        <time>2007-02-24T12:00:31Z</time>
      </trkpt>
      <trkpt lat="45.49608" lon="14.05535">
        <ele>984.534484863282</ele>
        <time>2007-02-24T12:00:51Z</time>
      </trkpt>
      <trkpt lat="45.49608" lon="14.05531">
        <ele>984.046813964845</ele>
        <time>2007-02-24T12:00:54Z</time>
      </trkpt>
      <trkpt lat="45.49617" lon="14.0551">
        <ele>981.638916015625</ele>
        <time>2007-02-24T12:01:12Z</time>
      </trkpt>
      <trkpt lat="45.49634" lon="14.0549">
        <ele>978.773742675781</ele>
        <time>2007-02-24T12:01:37Z</time>
      </trkpt>
      <trkpt lat="45.49636" lon="14.05486">
        <ele>980.206298828126</ele>
        <time>2007-02-24T12:01:40Z</time>
      </trkpt>
      <trkpt lat="45.49655" lon="14.05463">
        <ele>981.638916015625</ele>
        <time>2007-02-24T12:02:06Z</time>
      </trkpt>
      <trkpt lat="45.49666" lon="14.05441">
        <ele>982.126525878905</ele>
        <time>2007-02-24T12:02:28Z</time>
      </trkpt>
      <trkpt lat="45.49681" lon="14.05422">
        <ele>980.206298828126</ele>
        <time>2007-02-24T12:02:51Z</time>
      </trkpt>
      <trkpt lat="45.49681" lon="14.05422">
        <ele>980.206298828126</ele>
        <time>2007-02-24T12:02:52Z</time>
      </trkpt>
      <trkpt lat="45.49692" lon="14.05417">
        <ele>977.310668945311</ele>
        <time>2007-02-24T12:03:05Z</time>
      </trkpt>
      <trkpt lat="45.497" lon="14.05415">
        <ele>971.06231689453</ele>
        <time>2007-02-24T12:03:15Z</time>
      </trkpt>
      <trkpt lat="45.497" lon="14.05415">
        <ele>976.365844726561</ele>
        <time>2007-02-24T12:03:16Z</time>
      </trkpt>
      <trkpt lat="45.49702" lon="14.05415">
        <ele>975.390502929686</ele>
        <time>2007-02-24T12:03:17Z</time>
      </trkpt>
      <trkpt lat="45.49717" lon="14.05409">
        <ele>975.390502929686</ele>
        <time>2007-02-24T12:03:39Z</time>
      </trkpt>
      <trkpt lat="45.49726" lon="14.05405">
        <ele>977.310668945311</ele>
        <time>2007-02-24T12:03:56Z</time>
      </trkpt>
      <trkpt lat="45.49732" lon="14.05396">
        <ele>976.823059082031</ele>
        <time>2007-02-24T12:04:40Z</time>
      </trkpt>
      <trkpt lat="45.49743" lon="14.05385">
        <ele>974.902770996094</ele>
        <time>2007-02-24T12:05:12Z</time>
      </trkpt>
      <trkpt lat="45.49754" lon="14.05372">
        <ele>973.957885742187</ele>
        <time>2007-02-24T12:05:36Z</time>
      </trkpt>
      <trkpt lat="45.49762" lon="14.05362">
        <ele>972.525329589845</ele>
        <time>2007-02-24T12:05:59Z</time>
      </trkpt>
      <trkpt lat="45.49767" lon="14.05357">
        <ele>969.142089843751</ele>
        <time>2007-02-24T12:06:10Z</time>
      </trkpt>
      <trkpt lat="45.49786" lon="14.05349">
        <ele>966.276916503906</ele>
        <time>2007-02-24T12:06:30Z</time>
      </trkpt>
      <trkpt lat="45.49801" lon="14.05336">
        <ele>963.381347656249</ele>
        <time>2007-02-24T12:06:48Z</time>
      </trkpt>
      <trkpt lat="45.4981" lon="14.05325">
        <ele>960.028564453125</ele>
        <time>2007-02-24T12:07:04Z</time>
      </trkpt>
      <trkpt lat="45.49812" lon="14.05319">
        <ele>957.132934570314</ele>
        <time>2007-02-24T12:07:13Z</time>
      </trkpt>
      <trkpt lat="45.49812" lon="14.05314">
        <ele>955.212707519531</ele>
        <time>2007-02-24T12:07:17Z</time>
      </trkpt>
      <trkpt lat="45.49818" lon="14.05302">
        <ele>950.884521484375</ele>
        <time>2007-02-24T12:07:38Z</time>
      </trkpt>
      <trkpt lat="45.49831" lon="14.05284">
        <ele>947.988952636718</ele>
        <time>2007-02-24T12:07:57Z</time>
      </trkpt>
      <trkpt lat="45.49846" lon="14.05282">
        <ele>944.636169433594</ele>
        <time>2007-02-24T12:08:05Z</time>
      </trkpt>
      <trkpt lat="45.49876" lon="14.05265">
        <ele>942.228271484374</ele>
        <time>2007-02-24T12:08:38Z</time>
      </trkpt>
      <trkpt lat="45.49893" lon="14.05257">
        <ele>941.740539550782</ele>
        <time>2007-02-24T12:08:58Z</time>
      </trkpt>
      <trkpt lat="45.49911" lon="14.05254">
        <ele>938.875427246095</ele>
        <time>2007-02-24T12:09:13Z</time>
      </trkpt>
      <trkpt lat="45.49926" lon="14.05272">
        <ele>935.492126464843</ele>
        <time>2007-02-24T12:09:32Z</time>
      </trkpt>
      <trkpt lat="45.49926" lon="14.05278">
        <ele>936.955200195313</ele>
        <time>2007-02-24T12:09:36Z</time>
      </trkpt>
      <trkpt lat="45.49932" lon="14.05287">
        <ele>935.004516601564</ele>
        <time>2007-02-24T12:09:44Z</time>
      </trkpt>
      <trkpt lat="45.49943" lon="14.05291">
        <ele>931.651733398436</ele>
        <time>2007-02-24T12:09:53Z</time>
      </trkpt>
      <trkpt lat="45.49945" lon="14.05291">
        <ele>935.004516601564</ele>
        <time>2007-02-24T12:09:54Z</time>
      </trkpt>
      <trkpt lat="45.49947" lon="14.05289">
        <ele>933.084228515624</ele>
        <time>2007-02-24T12:09:57Z</time>
      </trkpt>
      <trkpt lat="45.49966" lon="14.05267">
        <ele>932.139343261719</ele>
        <time>2007-02-24T12:10:22Z</time>
      </trkpt>
      <trkpt lat="45.49975" lon="14.05259">
        <ele>930.219116210937</ele>
        <time>2007-02-24T12:10:40Z</time>
      </trkpt>
      <trkpt lat="45.49981" lon="14.05239">
        <ele>926.835876464842</ele>
        <time>2007-02-24T12:10:59Z</time>
      </trkpt>
      <trkpt lat="45.49984" lon="14.05231">
        <ele>924.458374023438</ele>
        <time>2007-02-24T12:11:07Z</time>
      </trkpt>
      <trkpt lat="45.4999" lon="14.05229">
        <ele>921.562805175781</ele>
        <time>2007-02-24T12:11:16Z</time>
      </trkpt>
      <trkpt lat="45.49992" lon="14.05229">
        <ele>920.587463378907</ele>
        <time>2007-02-24T12:11:21Z</time>
      </trkpt>
      <trkpt lat="45.50007" lon="14.05229">
        <ele>917.234680175783</ele>
        <time>2007-02-24T12:11:37Z</time>
      </trkpt>
      <trkpt lat="45.50009" lon="14.05226">
        <ele>916.259338378905</ele>
        <time>2007-02-24T12:11:41Z</time>
      </trkpt>
      <trkpt lat="45.50022" lon="14.05218">
        <ele>912.906494140626</ele>
        <time>2007-02-24T12:11:53Z</time>
      </trkpt>
      <trkpt lat="45.50031" lon="14.05199">
        <ele>909.553710937499</ele>
        <time>2007-02-24T12:12:08Z</time>
      </trkpt>
      <trkpt lat="45.50048" lon="14.05175">
        <ele>906.658081054687</ele>
        <time>2007-02-24T12:12:33Z</time>
      </trkpt>
      <trkpt lat="45.50056" lon="14.05156">
        <ele>903.305297851563</ele>
        <time>2007-02-24T12:12:51Z</time>
      </trkpt>
      <trkpt lat="45.50069" lon="14.05162">
        <ele>901.385070800781</ele>
        <time>2007-02-24T12:13:12Z</time>
      </trkpt>
      <trkpt lat="45.50076" lon="14.05169">
        <ele>899.921997070311</ele>
        <time>2007-02-24T12:13:31Z</time>
      </trkpt>
      <trkpt lat="45.50086" lon="14.05196">
        <ele>900.409729003906</ele>
        <time>2007-02-24T12:18:00Z</time>
      </trkpt>
      <trkpt lat="45.50091" lon="14.05218">
        <ele>900.897338867189</ele>
        <time>2007-02-24T12:18:14Z</time>
      </trkpt>
      <trkpt lat="45.5011" lon="14.05248">
        <ele>899.464782714844</ele>
        <time>2007-02-24T12:18:43Z</time>
      </trkpt>
      <trkpt lat="45.50119" lon="14.05259">
        <ele>896.081481933595</ele>
        <time>2007-02-24T12:19:00Z</time>
      </trkpt>
      <trkpt lat="45.50121" lon="14.05261">
        <ele>894.64892578125</ele>
        <time>2007-02-24T12:19:06Z</time>
      </trkpt>
      <trkpt lat="45.50132" lon="14.05261">
        <ele>891.753356933593</ele>
        <time>2007-02-24T12:19:18Z</time>
      </trkpt>
      <trkpt lat="45.50138" lon="14.05265">
        <ele>890.320800781251</ele>
        <time>2007-02-24T12:19:28Z</time>
      </trkpt>
      <trkpt lat="45.50144" lon="14.05278">
        <ele>886.480285644532</ele>
        <time>2007-02-24T12:19:43Z</time>
      </trkpt>
      <trkpt lat="45.50151" lon="14.05289">
        <ele>883.097045898438</ele>
        <time>2007-02-24T12:19:57Z</time>
      </trkpt>
      <trkpt lat="45.50162" lon="14.05295">
        <ele>879.744262695314</ele>
        <time>2007-02-24T12:20:14Z</time>
      </trkpt>
      <trkpt lat="45.50187" lon="14.05297">
        <ele>875.903747558594</ele>
        <time>2007-02-24T12:20:43Z</time>
      </trkpt>
      <trkpt lat="45.50192" lon="14.05295">
        <ele>875.416137695312</ele>
        <time>2007-02-24T12:20:48Z</time>
      </trkpt>
      <trkpt lat="45.50215" lon="14.05289">
        <ele>871.575622558592</ele>
        <time>2007-02-24T12:21:12Z</time>
      </trkpt>
      <trkpt lat="45.50232" lon="14.05289">
        <ele>870.600280761718</ele>
        <time>2007-02-24T12:21:29Z</time>
      </trkpt>
      <trkpt lat="45.50252" lon="14.05293">
        <ele>867.247436523436</ele>
        <time>2007-02-24T12:21:48Z</time>
      </trkpt>
      <trkpt lat="45.50269" lon="14.05289">
        <ele>863.40692138672</ele>
        <time>2007-02-24T12:22:07Z</time>
      </trkpt>
      <trkpt lat="45.50273" lon="14.05278">
        <ele>860.511352539063</ele>
        <time>2007-02-24T12:22:18Z</time>
      </trkpt>
      <trkpt lat="45.50273" lon="14.05274">
        <ele>858.591064453126</ele>
        <time>2007-02-24T12:22:22Z</time>
      </trkpt>
      <trkpt lat="45.50284" lon="14.05261">
        <ele>855.695495605469</ele>
        <time>2007-02-24T12:22:41Z</time>
      </trkpt>
      <trkpt lat="45.50295" lon="14.05252">
        <ele>849.934814453125</ele>
        <time>2007-02-24T12:22:55Z</time>
      </trkpt>
      <trkpt lat="45.50297" lon="14.05252">
        <ele>853.318115234374</ele>
        <time>2007-02-24T12:22:56Z</time>
      </trkpt>
      <trkpt lat="45.50305" lon="14.05246">
        <ele>850.422485351563</ele>
        <time>2007-02-24T12:23:09Z</time>
      </trkpt>
      <trkpt lat="45.50316" lon="14.05233">
        <ele>849.44708251953</ele>
        <time>2007-02-24T12:23:31Z</time>
      </trkpt>
      <trkpt lat="45.50316" lon="14.05231">
        <ele>848.989868164063</ele>
        <time>2007-02-24T12:23:33Z</time>
      </trkpt>
      <trkpt lat="45.50327" lon="14.05216">
        <ele>846.094299316406</ele>
        <time>2007-02-24T12:23:50Z</time>
      </trkpt>
      <trkpt lat="45.50335" lon="14.05209">
        <ele>844.174133300781</ele>
        <time>2007-02-24T12:24:02Z</time>
      </trkpt>
      <trkpt lat="45.50353" lon="14.05207">
        <ele>841.766174316407</ele>
        <time>2007-02-24T12:24:19Z</time>
      </trkpt>
      <trkpt lat="45.50357" lon="14.05203">
        <ele>840.333618164062</ele>
        <time>2007-02-24T12:24:26Z</time>
      </trkpt>
      <trkpt lat="45.50363" lon="14.05201">
        <ele>839.845886230467</ele>
        <time>2007-02-24T12:24:32Z</time>
      </trkpt>
      <trkpt lat="45.50391" lon="14.05209">
        <ele>836.005432128906</ele>
        <time>2007-02-24T12:24:53Z</time>
      </trkpt>
      <trkpt lat="45.504" lon="14.05196">
        <ele>833.597473144532</ele>
        <time>2007-02-24T12:25:11Z</time>
      </trkpt>
      <trkpt lat="45.50406" lon="14.05173">
        <ele>831.189575195312</ele>
        <time>2007-02-24T12:25:29Z</time>
      </trkpt>
      <trkpt lat="45.50408" lon="14.05173">
        <ele>828.324523925783</ele>
        <time>2007-02-24T12:25:32Z</time>
      </trkpt>
      <trkpt lat="45.50408" lon="14.05171">
        <ele>833.109863281249</ele>
        <time>2007-02-24T12:25:33Z</time>
      </trkpt>
      <trkpt lat="45.50411" lon="14.05166">
        <ele>829.757080078125</ele>
        <time>2007-02-24T12:25:37Z</time>
      </trkpt>
      <trkpt lat="45.50415" lon="14.05154">
        <ele>828.78173828125</ele>
        <time>2007-02-24T12:25:49Z</time>
      </trkpt>
      <trkpt lat="45.50426" lon="14.05143">
        <ele>827.836791992188</ele>
        <time>2007-02-24T12:26:03Z</time>
      </trkpt>
      <trkpt lat="45.50436" lon="14.0513">
        <ele>825.916564941405</ele>
        <time>2007-02-24T12:26:19Z</time>
      </trkpt>
      <trkpt lat="45.50451" lon="14.05117">
        <ele>821.100708007812</ele>
        <time>2007-02-24T12:32:18Z</time>
      </trkpt>
      <trkpt lat="45.50456" lon="14.05121">
        <ele>821.100708007812</ele>
        <time>2007-02-24T12:32:21Z</time>
      </trkpt>
      <trkpt lat="45.50458" lon="14.05132">
        <ele>819.66815185547</ele>
        <time>2007-02-24T12:32:27Z</time>
      </trkpt>
      <trkpt lat="45.50458" lon="14.05154">
        <ele>816.772521972655</ele>
        <time>2007-02-24T12:32:38Z</time>
      </trkpt>
      <trkpt lat="45.50458" lon="14.05181">
        <ele>813.419738769531</ele>
        <time>2007-02-24T12:32:50Z</time>
      </trkpt>
      <trkpt lat="45.50456" lon="14.05209">
        <ele>810.524169921874</ele>
        <time>2007-02-24T12:33:05Z</time>
      </trkpt>
      <trkpt lat="45.5046" lon="14.05237">
        <ele>809.579284667969</ele>
        <time>2007-02-24T12:33:26Z</time>
      </trkpt>
      <trkpt lat="45.50464" lon="14.05231">
        <ele>806.683715820312</ele>
        <time>2007-02-24T12:33:42Z</time>
      </trkpt>
      <trkpt lat="45.50466" lon="14.05229">
        <ele>805.251098632813</ele>
        <time>2007-02-24T12:33:45Z</time>
      </trkpt>
      <trkpt lat="45.50471" lon="14.05222">
        <ele>803.330932617188</ele>
        <time>2007-02-24T12:33:54Z</time>
      </trkpt>
      <trkpt lat="45.50481" lon="14.0522">
        <ele>802.355468750001</ele>
        <time>2007-02-24T12:34:05Z</time>
      </trkpt>
      <trkpt lat="45.50496" lon="14.05229">
        <ele>799.002685546874</ele>
        <time>2007-02-24T12:34:18Z</time>
      </trkpt>
      <trkpt lat="45.50524" lon="14.05224">
        <ele>795.61944580078</ele>
        <time>2007-02-24T12:34:41Z</time>
      </trkpt>
      <trkpt lat="45.50541" lon="14.05216">
        <ele>794.186889648438</ele>
        <time>2007-02-24T12:34:58Z</time>
      </trkpt>
      <trkpt lat="45.50559" lon="14.05199">
        <ele>790.834106445314</ele>
        <time>2007-02-24T12:35:26Z</time>
      </trkpt>
      <trkpt lat="45.50563" lon="14.05196">
        <ele>786.96307373047</ele>
        <time>2007-02-24T12:35:32Z</time>
      </trkpt>
      <trkpt lat="45.50569" lon="14.05192">
        <ele>787.938537597657</ele>
        <time>2007-02-24T12:35:38Z</time>
      </trkpt>
      <trkpt lat="45.50584" lon="14.05188">
        <ele>785.042907714845</ele>
        <time>2007-02-24T12:35:52Z</time>
      </trkpt>
      <trkpt lat="45.50589" lon="14.05188">
        <ele>785.042907714845</ele>
        <time>2007-02-24T12:35:55Z</time>
      </trkpt>
      <trkpt lat="45.50595" lon="14.05192">
        <ele>783.122680664063</ele>
        <time>2007-02-24T12:36:03Z</time>
      </trkpt>
      <trkpt lat="45.50582" lon="14.05209">
        <ele>782.177734375001</ele>
        <time>2007-02-24T12:36:19Z</time>
      </trkpt>
      <trkpt lat="45.50563" lon="14.05248">
        <ele>781.202392578126</ele>
        <time>2007-02-24T12:36:47Z</time>
      </trkpt>
      <trkpt lat="45.50554" lon="14.0528">
        <ele>780.714660644531</ele>
        <time>2007-02-24T12:37:11Z</time>
      </trkpt>
      <trkpt lat="45.50541" lon="14.05319">
        <ele>781.690124511718</ele>
        <time>2007-02-24T12:37:34Z</time>
      </trkpt>
      <trkpt lat="45.50533" lon="14.05368">
        <ele>782.177734375001</ele>
        <time>2007-02-24T12:38:09Z</time>
      </trkpt>
      <trkpt lat="45.50533" lon="14.05409">
        <ele>780.257507324218</ele>
        <time>2007-02-24T12:38:33Z</time>
      </trkpt>
      <trkpt lat="45.50529" lon="14.05458">
        <ele>778.337280273436</ele>
        <time>2007-02-24T12:39:00Z</time>
      </trkpt>
      <trkpt lat="45.50531" lon="14.05465">
        <ele>777.361877441407</ele>
        <time>2007-02-24T12:39:04Z</time>
      </trkpt>
      <trkpt lat="45.50533" lon="14.05469">
        <ele>777.361877441407</ele>
        <time>2007-02-24T12:39:06Z</time>
      </trkpt>
      <trkpt lat="45.50533" lon="14.05488">
        <ele>775.441711425782</ele>
        <time>2007-02-24T12:39:18Z</time>
      </trkpt>
      <trkpt lat="45.50541" lon="14.05523">
        <ele>772.546081542968</ele>
        <time>2007-02-24T12:39:41Z</time>
      </trkpt>
      <trkpt lat="45.50544" lon="14.05529">
        <ele>771.113464355468</ele>
        <time>2007-02-24T12:39:47Z</time>
      </trkpt>
      <trkpt lat="45.50546" lon="14.05568">
        <ele>769.193298339844</ele>
        <time>2007-02-24T12:40:13Z</time>
      </trkpt>
      <trkpt lat="45.50544" lon="14.05578">
        <ele>767.760681152344</ele>
        <time>2007-02-24T12:40:19Z</time>
      </trkpt>
      <trkpt lat="45.50546" lon="14.05589">
        <ele>765.840515136719</ele>
        <time>2007-02-24T12:40:27Z</time>
      </trkpt>
      <trkpt lat="45.50548" lon="14.05596">
        <ele>765.840515136719</ele>
        <time>2007-02-24T12:40:31Z</time>
      </trkpt>
      <trkpt lat="45.50556" lon="14.05611">
        <ele>762.944885253908</ele>
        <time>2007-02-24T12:40:49Z</time>
      </trkpt>
    </trkseg>
  </trk>
</gpx>
